Time;durP1;ratioP1;P1;durP2;ratioP2;P2;SDS_P1;SDS_P2;PMS_P1;PMS_P2;Temp;Humidity;BMP_temperature;BMP_pressure;BME280_temperature;BME280_humidity;BME280_pressure;Samples;Min_cycle;Max_cycle;Signal;HPM_P1;HPM_P2
2021/10/09 00:02:17;;;;;;;14.73;11.83;;;;;;;;;;4975098;28;20571;-72
2021/10/09 00:07:46;;;;;;;15.67;12.30;;;;;;;;;;4974738;28;20523;-72
2021/10/09 00:10:23;;;;;;;17.43;12.70;;;;;;;;;;4974737;28;20854;-73
2021/10/09 00:12:49;;;;;;;14.90;12.87;;;;;;;;;;4974938;28;20424;-72
2021/10/09 00:15:15;;;;;;;15.30;12.60;;;;;;;;;;4974813;28;20420;-73
2021/10/09 00:17:41;;;;;;;12.80;11.43;;;;;;;;;;4974727;28;20472;-73
2021/10/09 00:23:10;;;;;;;16.13;12.03;;;;;;;;;;4974504;28;20448;-73
2021/10/09 00:25:37;;;;;;;13.37;11.80;;;;;;;;;;4974580;28;20433;-73
2021/10/09 00:28:03;;;;;;;15.27;12.20;;;;;;;;;;4974403;28;20482;-72
2021/10/09 00:30:29;;;;;;;17.13;11.43;;;;;;;;;;4974586;28;20901;-72
2021/10/09 00:32:55;;;;;;;15.20;12.83;;;;;;;;;;4974546;28;20428;-72
2021/10/09 00:35:21;;;;;;;16.70;12.43;;;;;;;;;;4974766;28;20738;-73
2021/10/09 00:37:47;;;;;;;15.80;12.47;;;;;;;;;;4974442;28;20429;-73
2021/10/09 00:40:13;;;;;;;22.27;13.37;;;;;;;;;;4974398;28;20409;-73
2021/10/09 00:42:39;;;;;;;17.73;12.77;;;;;;;;;;4974289;28;20469;-73
2021/10/09 00:45:06;;;;;;;17.73;13.37;;;;;;;;;;4973334;28;20440;-72
2021/10/09 00:47:32;;;;;;;21.93;13.07;;;;;;;;;;4974089;28;20568;-73
2021/10/09 00:53:01;;;;;;;17.70;13.00;;;;;;;;;;4974163;28;20413;-73
2021/10/09 00:55:28;;;;;;;16.30;13.90;;;;;;;;;;4974088;28;20641;-73
2021/10/09 00:57:54;;;;;;;18.40;11.93;;;;;;;;;;4972732;28;20534;-73
2021/10/09 01:00:20;;;;;;;16.70;12.60;;;;;;;;;;4977429;28;20767;-73
2021/10/09 01:02:46;;;;;;;18.73;15.20;;;;;;;;;;4978496;28;20444;-73
2021/10/09 01:08:16;;;;;;;15.73;12.30;;;;;;;;;;4977945;28;20562;-73
2021/10/09 01:10:42;;;;;;;14.50;12.10;;;;;;;;;;4978337;28;20417;-73
2021/10/09 01:13:08;;;;;;;18.17;14.73;;;;;;;;;;4977901;28;20416;-73
2021/10/09 01:15:35;;;;;;;16.20;13.43;;;;;;;;;;4977926;28;20491;-72
2021/10/09 01:18:10;;;;;;;16.83;14.07;;;;;;;;;;4977934;28;20836;-72
2021/10/09 01:23:39;;;;;;;19.90;13.60;;;;;;;;;;4977681;28;20417;-73
2021/10/09 01:26:09;;;;;;;16.13;14.23;;;;;;;;;;4978021;28;20776;-72
2021/10/09 01:28:36;;;;;;;15.57;13.63;;;;;;;;;;4977760;28;20473;-72
2021/10/09 01:31:02;;;;;;;17.20;13.93;;;;;;;;;;4977953;28;20416;-72
2021/10/09 01:33:28;;;;;;;17.90;13.70;;;;;;;;;;4977717;28;20425;-72
2021/10/09 01:35:55;;;;;;;16.23;13.17;;;;;;;;;;4977694;28;20970;-72
2021/10/09 01:38:22;;;;;;;19.50;13.07;;;;;;;;;;4977773;28;20422;-72
2021/10/09 01:40:48;;;;;;;13.67;12.03;;;;;;;;;;4977596;28;20404;-73
2021/10/09 01:43:15;;;;;;;17.93;13.00;;;;;;;;;;4977425;28;20423;-72
2021/10/09 01:45:42;;;;;;;16.03;13.00;;;;;;;;;;4977808;28;20773;-72
2021/10/09 01:48:08;;;;;;;17.73;13.17;;;;;;;;;;4976031;28;20527;-72
2021/10/09 01:53:38;;;;;;;21.70;14.40;;;;;;;;;;4977194;28;20414;-72
2021/10/09 01:56:05;;;;;;;19.67;13.20;;;;;;;;;;4977193;28;20567;-72
2021/10/09 01:58:31;;;;;;;16.70;13.50;;;;;;;;;;4977104;28;20412;-72
2021/10/09 02:00:58;;;;;;;17.20;13.50;;;;;;;;;;4977168;28;20446;-72
2021/10/09 02:03:24;;;;;;;15.50;12.00;;;;;;;;;;4975850;28;20478;-72
2021/10/09 02:08:54;;;;;;;19.43;13.37;;;;;;;;;;4976884;28;20966;-73
2021/10/09 02:11:22;;;;;;;17.53;12.43;;;;;;;;;;4976799;28;20906;-73
2021/10/09 02:14:36;;;;;;;13.03;11.30;;;;;;;;;;4976768;28;20475;-72
2021/10/09 02:25:46;;;;;;;18.20;12.50;;;;;;;;;;4976747;28;20926;-71
2021/10/09 02:28:19;;;;;;;14.43;12.93;;;;;;;;;;4976390;28;20471;-72
2021/10/09 02:30:45;;;;;;;15.43;12.43;;;;;;;;;;4976623;28;20415;-72
2021/10/09 02:33:12;;;;;;;12.20;9.87;;;;;;;;;;4976706;28;20425;-72
2021/10/09 02:38:41;;;;;;;15.70;13.07;;;;;;;;;;4976426;28;20407;-72
2021/10/09 02:41:07;;;;;;;14.93;12.20;;;;;;;;;;4976693;28;20528;-71
2021/10/09 02:43:33;;;;;;;14.53;11.43;;;;;;;;;;4976428;28;20507;-72
2021/10/09 02:45:59;;;;;;;13.27;10.53;;;;;;;;;;4976483;28;20503;-72
2021/10/09 02:48:25;;;;;;;12.40;11.10;;;;;;;;;;4976186;28;20476;-72
2021/10/09 02:53:55;;;;;;;13.90;11.17;;;;;;;;;;4976072;28;20413;-73
2021/10/09 02:56:21;;;;;;;13.37;11.77;;;;;;;;;;4976050;28;20471;-72
2021/10/09 02:58:47;;;;;;;12.27;10.40;;;;;;;;;;4975954;28;20515;-72
2021/10/09 03:01:13;;;;;;;13.50;11.60;;;;;;;;;;4975979;28;20424;-72
2021/10/09 03:03:39;;;;;;;15.10;12.10;;;;;;;;;;4976211;28;20415;-72
2021/10/09 03:09:08;;;;;;;14.90;11.90;;;;;;;;;;4975851;28;20557;-73
2021/10/09 03:11:34;;;;;;;17.17;11.67;;;;;;;;;;4975953;28;20526;-72
2021/10/09 03:14:00;;;;;;;13.00;10.27;;;;;;;;;;4975738;28;20436;-72
2021/10/09 03:16:26;;;;;;;15.60;10.53;;;;;;;;;;4975822;28;20511;-72
2021/10/09 03:18:52;;;;;;;16.30;11.33;;;;;;;;;;4975713;28;20423;-73
2021/10/09 03:24:21;;;;;;;13.33;10.10;;;;;;;;;;4975570;28;20412;-72
2021/10/09 03:26:47;;;;;;;14.57;10.37;;;;;;;;;;4975448;28;20456;-72
2021/10/09 03:29:13;;;;;;;13.37;10.97;;;;;;;;;;4975498;28;20462;-73
2021/10/09 03:31:39;;;;;;;15.53;11.70;;;;;;;;;;4975511;28;20966;-73
2021/10/09 03:34:05;;;;;;;17.20;10.57;;;;;;;;;;4975395;28;20845;-72
2021/10/09 03:39:37;;;;;;;12.77;11.00;;;;;;;;;;4975267;28;20457;-72
2021/10/09 03:42:11;;;;;;;14.07;11.30;;;;;;;;;;4975223;28;20424;-73
2021/10/09 03:45:00;;;;;;;17.13;10.80;;;;;;;;;;4975314;28;20486;-72
2021/10/09 03:53:03;;;;;;;14.63;10.37;;;;;;;;;;4973029;28;20791;-73
2021/10/09 03:55:30;;;;;;;13.80;10.93;;;;;;;;;;4975059;28;20471;-72
2021/10/09 03:57:56;;;;;;;10.23;9.20;;;;;;;;;;4974899;28;20526;-72
2021/10/09 04:00:22;;;;;;;14.17;10.03;;;;;;;;;;4974922;28;20891;-72
2021/10/09 04:02:48;;;;;;;12.70;9.77;;;;;;;;;;4974043;28;20764;-71
2021/10/09 04:05:14;;;;;;;13.00;10.63;;;;;;;;;;4974894;28;20420;-72
2021/10/09 04:07:40;;;;;;;17.13;9.97;;;;;;;;;;4974685;28;20471;-71
2021/10/09 04:10:07;;;;;;;15.23;10.77;;;;;;;;;;4974712;28;20411;-72
2021/10/09 04:12:33;;;;;;;13.17;10.73;;;;;;;;;;4974700;28;20802;-72
2021/10/09 04:14:59;;;;;;;15.00;10.33;;;;;;;;;;4974794;28;20765;-71
2021/10/09 04:17:25;;;;;;;15.33;12.07;;;;;;;;;;4974741;28;20412;-74
2021/10/09 04:19:51;;;;;;;11.90;9.83;;;;;;;;;;4974720;28;20424;-73
2021/10/09 04:22:17;;;;;;;12.57;10.37;;;;;;;;;;4974731;28;20416;-73
2021/10/09 04:24:43;;;;;;;12.67;9.90;;;;;;;;;;4973405;28;20463;-72
2021/10/09 04:27:09;;;;;;;12.90;9.40;;;;;;;;;;4974475;28;20464;-71
2021/10/09 04:29:35;;;;;;;12.60;9.70;;;;;;;;;;4974595;28;20495;-73
2021/10/09 04:32:01;;;;;;;13.23;11.80;;;;;;;;;;4974597;28;20775;-72
2021/10/09 04:34:27;;;;;;;12.50;9.87;;;;;;;;;;4973774;28;20685;-72
2021/10/09 04:39:57;;;;;;;12.10;10.90;;;;;;;;;;4974328;28;20465;-73
2021/10/09 04:42:23;;;;;;;17.97;10.10;;;;;;;;;;4974374;28;20416;-73
2021/10/09 04:44:49;;;;;;;16.43;10.77;;;;;;;;;;4973187;28;20424;-71
2021/10/09 04:47:14;;;;;;;13.20;9.97;;;;;;;;;;4974515;28;20493;-72
2021/10/09 04:49:40;;;;;;;15.53;10.83;;;;;;;;;;4974304;28;20411;-72
2021/10/09 04:55:10;;;;;;;14.43;10.40;;;;;;;;;;4973966;28;20550;-72
2021/10/09 04:57:36;;;;;;;12.30;9.40;;;;;;;;;;4974351;28;20413;-71
2021/10/09 05:00:03;;;;;;;17.20;11.63;;;;;;;;;;4974201;28;20516;-72
2021/10/09 05:02:28;;;;;;;12.60;11.27;;;;;;;;;;4974223;28;20407;-72
2021/10/09 05:04:54;;;;;;;14.93;10.80;;;;;;;;;;4972970;28;20450;-72
2021/10/09 05:10:26;;;;;;;11.67;10.00;;;;;;;;;;4974174;28;20466;-72
2021/10/09 05:12:52;;;;;;;12.60;10.80;;;;;;;;;;4974057;28;20435;-72
2021/10/09 05:15:18;;;;;;;12.63;10.77;;;;;;;;;;4974034;28;20916;-72
2021/10/09 05:17:44;;;;;;;14.93;11.67;;;;;;;;;;4973958;28;20421;-73
2021/10/09 05:20:10;;;;;;;14.30;11.07;;;;;;;;;;4973988;28;20404;-72
2021/10/09 05:25:42;;;;;;;15.30;11.80;;;;;;;;;;4973965;28;20463;-73
2021/10/09 05:28:12;;;;;;;16.67;12.13;;;;;;;;;;4973979;28;20568;-73
2021/10/09 05:30:45;;;;;;;14.03;11.70;;;;;;;;;;4973959;28;20431;-72
2021/10/09 05:33:17;;;;;;;12.00;10.50;;;;;;;;;;4973763;28;20430;-73
2021/10/09 05:35:43;;;;;;;13.70;11.50;;;;;;;;;;4973837;28;20781;-72
2021/10/09 05:38:09;;;;;;;12.47;11.13;;;;;;;;;;4973824;28;20895;-73
2021/10/09 05:40:35;;;;;;;15.60;11.33;;;;;;;;;;4971113;28;20416;-72
2021/10/09 05:43:01;;;;;;;26.03;11.70;;;;;;;;;;4973757;28;20452;-73
2021/10/09 05:45:28;;;;;;;17.13;12.07;;;;;;;;;;4975250;28;20411;-73
2021/10/09 05:47:54;;;;;;;14.87;11.40;;;;;;;;;;4977326;28;20481;-71
2021/10/09 05:50:25;;;;;;;13.20;11.40;;;;;;;;;;4977329;28;20415;-73
2021/10/09 05:55:58;;;;;;;18.47;10.90;;;;;;;;;;4976983;28;21119;-73
2021/10/09 06:44:34;;;;;;;18.17;12.90;;;;;;;;;;4975529;28;20859;-72
2021/10/09 07:00:43;;;;;;;20.00;14.57;;;;;;;;;;4976471;28;20418;-73
2021/10/09 07:03:09;;;;;;;14.37;12.17;;;;;;;;;;4976272;28;20422;-72
2021/10/09 07:05:40;;;;;;;18.63;13.87;;;;;;;;;;4973179;28;20422;-72
2021/10/09 07:11:13;;;;;;;14.40;12.47;;;;;;;;;;4975286;28;20460;-72
2021/10/09 07:13:39;;;;;;;17.20;12.03;;;;;;;;;;4974971;28;20901;-73
2021/10/09 07:16:05;;;;;;;17.53;13.43;;;;;;;;;;4975039;28;20428;-75
2021/10/09 07:18:32;;;;;;;18.57;13.97;;;;;;;;;;4975292;28;20586;-71
2021/10/09 07:20:58;;;;;;;18.30;13.03;;;;;;;;;;4975111;28;20429;-73
2021/10/09 07:26:27;;;;;;;22.83;14.80;;;;;;;;;;4974794;28;20406;-73
2021/10/09 07:28:53;;;;;;;20.93;13.43;;;;;;;;;;4974717;28;20477;-73
2021/10/09 07:31:19;;;;;;;14.43;12.60;;;;;;;;;;4974894;28;20414;-73
2021/10/09 07:33:45;;;;;;;15.17;12.63;;;;;;;;;;4974714;28;20425;-74
2021/10/09 07:36:11;;;;;;;20.37;13.20;;;;;;;;;;4971632;28;20489;-73
2021/10/09 07:41:41;;;;;;;22.17;14.63;;;;;;;;;;4974468;28;20473;-73
2021/10/09 07:44:07;;;;;;;16.23;13.90;;;;;;;;;;4974273;28;20768;-72
2021/10/09 07:46:33;;;;;;;18.37;12.93;;;;;;;;;;4974134;28;20485;-72
2021/10/09 07:48:59;;;;;;;22.00;14.90;;;;;;;;;;4974130;28;20458;-73
2021/10/09 07:51:25;;;;;;;14.00;11.70;;;;;;;;;;4974397;28;20443;-73
2021/10/09 07:56:54;;;;;;;14.40;11.83;;;;;;;;;;4973963;28;20533;-72
2021/10/09 07:59:20;;;;;;;19.63;13.07;;;;;;;;;;4974074;28;20426;-73
2021/10/09 08:01:46;;;;;;;18.43;14.00;;;;;;;;;;4974088;28;20426;-72
2021/10/09 08:04:15;;;;;;;17.07;13.43;;;;;;;;;;4974314;28;20433;-73
2021/10/09 08:06:41;;;;;;;18.03;13.40;;;;;;;;;;4975150;28;20419;-71
2021/10/09 08:12:10;;;;;;;15.40;12.67;;;;;;;;;;4974595;28;20917;-73
2021/10/09 08:14:36;;;;;;;16.10;13.80;;;;;;;;;;4974783;28;20417;-74
2021/10/09 08:17:02;;;;;;;18.20;15.87;;;;;;;;;;4973685;28;20415;-74
2021/10/09 08:19:28;;;;;;;16.00;13.47;;;;;;;;;;4974705;28;20497;-73
2021/10/09 08:21:55;;;;;;;16.07;13.97;;;;;;;;;;4974702;28;20518;-73
2021/10/09 08:27:48;;;;;;;16.77;13.20;;;;;;;;;;4974421;28;20504;-72
2021/10/09 08:35:34;;;;;;;14.27;12.90;;;;;;;;;;4974045;28;20481;-72
2021/10/09 08:40:46;;;;;;;14.00;12.47;;;;;;;;;;4973901;28;20430;-73
2021/10/09 08:43:12;;;;;;;16.93;12.40;;;;;;;;;;4973389;28;20414;-72
2021/10/09 08:45:38;;;;;;;18.20;12.50;;;;;;;;;;4973470;28;20984;-72
2021/10/09 08:48:04;;;;;;;14.97;12.47;;;;;;;;;;4973273;28;20573;-73
2021/10/09 08:50:30;;;;;;;15.63;13.03;;;;;;;;;;4973563;28;20497;-73
2021/10/09 08:52:56;;;;;;;18.33;16.40;;;;;;;;;;4973310;28;20431;-74
2021/10/09 08:55:23;;;;;;;15.30;13.37;;;;;;;;;;4973177;28;20888;-73
2021/10/09 08:57:50;;;;;;;15.73;12.90;;;;;;;;;;4973138;28;20427;-73
2021/10/09 09:00:21;;;;;;;14.23;12.73;;;;;;;;;;4972269;28;20764;-73
2021/10/09 09:03:03;;;;;;;15.90;12.47;;;;;;;;;;4972889;28;20477;-73
2021/10/09 09:41:24;;;;;;;14.23;10.97;;;;;;;;;;4977218;28;20916;-73
2021/10/09 09:43:51;;;;;;;12.67;11.40;;;;;;;;;;4977073;28;20889;-72
2021/10/09 09:46:19;;;;;;;15.70;12.67;;;;;;;;;;4977237;28;20917;-73
2021/10/09 09:48:46;;;;;;;15.73;11.50;;;;;;;;;;4976980;28;20607;-73
2021/10/09 09:51:13;;;;;;;15.47;11.47;;;;;;;;;;4977116;28;20421;-73
2021/10/09 09:56:44;;;;;;;11.60;10.50;;;;;;;;;;4976971;28;20453;-73
2021/10/09 09:59:11;;;;;;;11.60;10.40;;;;;;;;;;4976804;28;20876;-73
2021/10/09 10:01:37;;;;;;;15.77;10.47;;;;;;;;;;4976947;28;20433;-73
2021/10/09 10:04:04;;;;;;;11.17;9.93;;;;;;;;;;4976779;28;20422;-72
2021/10/09 10:06:30;;;;;;;14.80;10.73;;;;;;;;;;4976902;28;20481;-71
2021/10/09 10:12:01;;;;;;;11.57;10.37;;;;;;;;;;4976298;28;20417;-72
2021/10/09 10:14:28;;;;;;;11.37;9.83;;;;;;;;;;4974166;28;20421;-71
2021/10/09 10:16:57;;;;;;;11.17;10.03;;;;;;;;;;4976065;28;20426;-72
2021/10/09 10:19:42;;;;;;;10.30;9.23;;;;;;;;;;4975775;28;20493;-70
2021/10/09 10:22:08;;;;;;;10.67;9.00;;;;;;;;;;4975671;28;20425;-71
2021/10/09 10:27:41;;;;;;;10.53;9.43;;;;;;;;;;4975297;28;20859;-71
2021/10/09 10:30:26;;;;;;;10.97;9.87;;;;;;;;;;4974256;28;20438;-72
2021/10/09 10:32:57;;;;;;;10.57;9.30;;;;;;;;;;4974241;28;20419;-72
2021/10/09 10:35:35;;;;;;;12.60;9.50;;;;;;;;;;4975344;28;20790;-71
2021/10/09 10:38:02;;;;;;;11.73;9.20;;;;;;;;;;4975325;28;20477;-72
2021/10/09 10:46:02;;;;;;;10.67;9.67;;;;;;;;;;4975386;28;20427;-71
2021/10/09 10:48:43;;;;;;;11.93;10.70;;;;;;;;;;4975266;28;20466;-72
2021/10/09 10:51:14;;;;;;;9.63;8.73;;;;;;;;;;4975145;28;20407;-72
2021/10/09 10:56:35;;;;;;;8.37;7.63;;;;;;;;;;4975055;28;20551;-72
2021/10/09 10:59:19;;;;;;;10.20;9.13;;;;;;;;;;4974971;28;20418;-73
2021/10/09 11:01:45;;;;;;;10.67;9.67;;;;;;;;;;4975038;28;20407;-72
2021/10/09 11:04:11;;;;;;;10.10;9.10;;;;;;;;;;4973629;28;20410;-72
2021/10/09 11:06:37;;;;;;;12.10;8.83;;;;;;;;;;4975036;28;20429;-72
2021/10/09 11:09:03;;;;;;;15.30;9.47;;;;;;;;;;4974663;28;20821;-73
2021/10/09 11:11:42;;;;;;;9.80;8.70;;;;;;;;;;4974779;28;20415;-71
2021/10/09 11:14:08;;;;;;;11.07;9.97;;;;;;;;;;4974864;28;20855;-72
2021/10/09 11:16:34;;;;;;;11.20;10.10;;;;;;;;;;4975501;28;20909;-72
2021/10/09 11:19:00;;;;;;;10.73;8.90;;;;;;;;;;4974815;28;20438;-72
2021/10/09 11:21:26;;;;;;;12.30;9.83;;;;;;;;;;4975705;28;20419;-73
2021/10/09 11:23:56;;;;;;;13.80;10.00;;;;;;;;;;4975729;28;20430;-72
2021/10/09 11:26:23;;;;;;;10.83;9.73;;;;;;;;;;4975009;28;20415;-68
2021/10/09 11:29:02;;;;;;;9.97;9.13;;;;;;;;;;4975118;28;20476;-72
2021/10/09 11:31:29;;;;;;;15.13;9.90;;;;;;;;;;4975392;28;20414;-74
2021/10/09 11:33:55;;;;;;;10.33;9.27;;;;;;;;;;4972651;28;20418;-73
2021/10/09 11:36:21;;;;;;;11.27;9.27;;;;;;;;;;4974577;28;20438;-74
2021/10/09 11:38:47;;;;;;;9.40;8.40;;;;;;;;;;4973908;28;20469;-73
2021/10/09 11:41:29;;;;;;;10.67;9.77;;;;;;;;;;4974190;28;20570;-74
2021/10/09 11:44:05;;;;;;;11.10;10.00;;;;;;;;;;4973635;28;20905;-73
2021/10/09 11:55:16;;;;;;;13.77;8.77;;;;;;;;;;4974677;28;20801;-72
2021/10/09 11:57:42;;;;;;;13.37;9.93;;;;;;;;;;4974663;28;20434;-74
2021/10/09 12:00:27;;;;;;;11.00;9.90;;;;;;;;;;4974599;28;20423;-73
2021/10/09 12:02:53;;;;;;;12.70;9.20;;;;;;;;;;4974782;28;20402;-72
2021/10/09 12:05:19;;;;;;;12.40;8.90;;;;;;;;;;4974792;28;20446;-73
2021/10/09 12:08:04;;;;;;;9.20;8.23;;;;;;;;;;4974593;28;20501;-73
2021/10/09 12:10:30;;;;;;;10.10;8.40;;;;;;;;;;4973337;28;20435;-72
2021/10/09 12:13:05;;;;;;;12.37;9.47;;;;;;;;;;4974749;28;20431;-73
2021/10/09 12:15:33;;;;;;;9.23;8.37;;;;;;;;;;4974638;28;20436;-73
2021/10/09 12:18:00;;;;;;;10.50;9.30;;;;;;;;;;4974900;28;20481;-73
2021/10/09 12:20:29;;;;;;;10.80;9.10;;;;;;;;;;4973563;28;20426;-72
2021/10/09 12:22:58;;;;;;;9.53;7.20;;;;;;;;;;4974496;28;20430;-72
2021/10/09 12:25:28;;;;;;;11.50;8.13;;;;;;;;;;4974300;28;20575;-72
2021/10/09 12:27:55;;;;;;;12.50;9.60;;;;;;;;;;4974063;28;20478;-70
2021/10/09 12:30:21;;;;;;;9.90;8.97;;;;;;;;;;4974120;28;20886;-72
2021/10/09 12:32:48;;;;;;;10.13;9.13;;;;;;;;;;4973833;28;20425;-72
2021/10/09 12:35:18;;;;;;;11.17;9.60;;;;;;;;;;4974280;28;20465;-72
2021/10/09 12:37:55;;;;;;;10.23;9.33;;;;;;;;;;4974249;28;20763;-72
2021/10/09 12:40:21;;;;;;;9.67;8.67;;;;;;;;;;4974122;28;20419;-73
2021/10/09 12:42:47;;;;;;;10.20;8.70;;;;;;;;;;4973926;28;20753;-73
2021/10/09 12:45:13;;;;;;;11.87;9.10;;;;;;;;;;4974124;28;20423;-72
2021/10/09 12:47:39;;;;;;;12.10;10.63;;;;;;;;;;4973939;28;20482;-72
2021/10/09 12:50:05;;;;;;;10.60;9.60;;;;;;;;;;4973934;28;20525;-72
2021/10/09 12:52:32;;;;;;;10.40;9.40;;;;;;;;;;4974141;28;20522;-73
2021/10/09 12:54:58;;;;;;;14.40;9.87;;;;;;;;;;4972799;28;20494;-72
2021/10/09 12:57:24;;;;;;;18.77;10.03;;;;;;;;;;4974060;28;20799;-73
2021/10/09 12:59:50;;;;;;;13.43;10.20;;;;;;;;;;4973923;28;20449;-73
2021/10/09 13:02:16;;;;;;;11.87;10.07;;;;;;;;;;4972650;28;20585;-72
2021/10/09 13:04:42;;;;;;;12.90;10.77;;;;;;;;;;4973830;28;20422;-73
2021/10/09 13:07:08;;;;;;;11.90;10.30;;;;;;;;;;4973841;28;20760;-73
2021/10/09 13:09:34;;;;;;;10.67;9.70;;;;;;;;;;4972780;28;20505;-72
2021/10/09 13:12:02;;;;;;;11.00;9.97;;;;;;;;;;4974044;28;20429;-72
2021/10/09 13:14:28;;;;;;;12.13;10.87;;;;;;;;;;4974110;28;20909;-71
2021/10/09 13:16:54;;;;;;;12.20;11.00;;;;;;;;;;4973836;28;20498;-72
2021/10/09 13:19:20;;;;;;;10.50;9.40;;;;;;;;;;4973816;28;20445;-72
2021/10/09 13:21:46;;;;;;;10.07;9.00;;;;;;;;;;4974036;28;20474;-72
2021/10/09 13:24:12;;;;;;;15.87;9.53;;;;;;;;;;4973803;28;20422;-72
2021/10/09 13:26:38;;;;;;;11.53;10.30;;;;;;;;;;4972484;28;20471;-72
2021/10/09 13:29:05;;;;;;;11.60;10.60;;;;;;;;;;4973913;28;20879;-72
2021/10/09 13:31:31;;;;;;;10.97;8.60;;;;;;;;;;4973611;28;20426;-73
2021/10/09 13:33:58;;;;;;;10.63;9.70;;;;;;;;;;4973607;28;20466;-71
2021/10/09 13:36:24;;;;;;;11.10;8.73;;;;;;;;;;4973583;28;20886;-73
2021/10/09 13:38:50;;;;;;;11.27;8.60;;;;;;;;;;4973559;28;20430;-73
2021/10/09 13:44:20;;;;;;;9.70;8.30;;;;;;;;;;4973676;28;20924;-73
2021/10/09 13:46:46;;;;;;;9.87;8.90;;;;;;;;;;4973857;28;20509;-72
2021/10/09 13:49:12;;;;;;;10.10;8.83;;;;;;;;;;4973784;28;20426;-73
2021/10/09 13:51:38;;;;;;;10.23;9.23;;;;;;;;;;4973550;28;20430;-72
2021/10/09 13:54:04;;;;;;;9.43;8.43;;;;;;;;;;4973311;28;20900;-72
2021/10/09 13:59:36;;;;;;;9.57;8.57;;;;;;;;;;4973348;28;20405;-72
2021/10/09 14:02:02;;;;;;;9.53;8.60;;;;;;;;;;4973686;28;20514;-73
2021/10/09 14:04:28;;;;;;;10.00;8.97;;;;;;;;;;4973386;28;20477;-73
2021/10/09 14:06:54;;;;;;;11.80;10.43;;;;;;;;;;4975722;28;20422;-73
2021/10/09 14:09:20;;;;;;;9.83;8.73;;;;;;;;;;4976843;28;20434;-73
2021/10/09 14:14:50;;;;;;;12.73;8.40;;;;;;;;;;4976758;28;20499;-73
2021/10/09 14:17:16;;;;;;;9.80;8.80;;;;;;;;;;4976656;28;20454;-73
2021/10/09 14:19:42;;;;;;;12.80;9.70;;;;;;;;;;4975398;28;20437;-73
2021/10/09 14:22:08;;;;;;;11.43;8.97;;;;;;;;;;4976723;28;20513;-73
2021/10/09 14:24:34;;;;;;;14.20;8.97;;;;;;;;;;4976807;28;20418;-73
2021/10/09 14:26:59;;;;;;;10.23;9.20;;;;;;;;;;4975085;28;20443;-74
2021/10/09 14:29:25;;;;;;;9.87;8.90;;;;;;;;;;4975262;28;20446;-72
2021/10/09 14:31:51;;;;;;;10.60;9.60;;;;;;;;;;4976422;28;20426;-72
2021/10/09 14:34:19;;;;;;;14.17;9.93;;;;;;;;;;4976521;28;20473;-73
2021/10/09 14:36:45;;;;;;;10.90;7.90;;;;;;;;;;4976374;28;20965;-72
2021/10/09 14:39:11;;;;;;;9.23;7.73;;;;;;;;;;4976203;28;20523;-72
2021/10/09 14:44:42;;;;;;;13.03;9.90;;;;;;;;;;4976255;28;20421;-73
2021/10/09 15:20:01;;;;;;;9.17;8.03;;;;;;;;;;4974454;28;20423;-72
2021/10/09 15:22:27;;;;;;;10.70;7.63;;;;;;;;;;4975544;28;20429;-72
2021/10/09 15:27:56;;;;;;;10.70;7.40;;;;;;;;;;4975268;28;20520;-72
2021/10/09 15:30:22;;;;;;;11.90;8.07;;;;;;;;;;4975260;28;20423;-73
2021/10/09 15:32:48;;;;;;;8.43;7.17;;;;;;;;;;4975263;28;20431;-73
2021/10/09 15:35:14;;;;;;;12.23;7.47;;;;;;;;;;4975630;28;20441;-72
2021/10/09 15:37:40;;;;;;;10.10;8.07;;;;;;;;;;4975510;28;20438;-73
2021/10/09 15:43:10;;;;;;;8.10;6.47;;;;;;;;;;4975038;28;20408;-73
2021/10/09 15:45:36;;;;;;;12.33;6.90;;;;;;;;;;4975054;28;20870;-73
2021/10/09 15:48:02;;;;;;;7.43;6.33;;;;;;;;;;4975223;28;20519;-72
2021/10/09 15:50:29;;;;;;;10.07;6.83;;;;;;;;;;4975092;28;20797;-72
2021/10/09 15:52:55;;;;;;;7.33;6.73;;;;;;;;;;4974958;28;20405;-72
2021/10/09 15:58:24;;;;;;;9.50;7.20;;;;;;;;;;4974742;28;20469;-73
2021/10/09 16:00:50;;;;;;;8.47;7.03;;;;;;;;;;4974848;28;20893;-72
2021/10/09 16:03:16;;;;;;;8.47;7.57;;;;;;;;;;4974742;28;20421;-73
2021/10/09 16:05:42;;;;;;;9.30;6.80;;;;;;;;;;4973720;28;20523;-71
2021/10/09 16:08:08;;;;;;;7.17;6.37;;;;;;;;;;4974578;28;20525;-71
2021/10/09 16:13:38;;;;;;;14.03;7.77;;;;;;;;;;4974501;28;20430;-71
2021/10/09 16:16:04;;;;;;;7.77;6.93;;;;;;;;;;4974456;28;21046;-72
2021/10/09 16:18:30;;;;;;;10.17;6.77;;;;;;;;;;4974470;28;20403;-72
2021/10/09 16:20:56;;;;;;;9.93;6.43;;;;;;;;;;4974497;28;20522;-71
2021/10/09 16:23:22;;;;;;;18.13;8.63;;;;;;;;;;4974265;28;20486;-72
2021/10/09 16:28:53;;;;;;;19.47;6.80;;;;;;;;;;4974237;28;20561;-72
2021/10/09 16:31:19;;;;;;;12.00;6.70;;;;;;;;;;4974403;28;20776;-72
2021/10/09 16:33:45;;;;;;;11.77;6.20;;;;;;;;;;4974361;28;20509;-72
2021/10/09 16:36:11;;;;;;;10.37;7.00;;;;;;;;;;4974171;28;20822;-73
2021/10/09 16:38:37;;;;;;;10.73;6.70;;;;;;;;;;4974248;28;20997;-73
2021/10/09 16:44:06;;;;;;;8.40;6.03;;;;;;;;;;4974022;28;20410;-72
2021/10/09 16:46:34;;;;;;;10.83;6.20;;;;;;;;;;4972995;28;20442;-73
2021/10/09 16:49:00;;;;;;;8.83;5.93;;;;;;;;;;4973944;28;20474;-71
2021/10/09 16:51:27;;;;;;;8.33;6.67;;;;;;;;;;4974018;28;20924;-72
2021/10/09 16:53:53;;;;;;;9.93;6.93;;;;;;;;;;4974046;28;20418;-72
2021/10/09 16:59:22;;;;;;;9.37;6.70;;;;;;;;;;4973308;28;20506;-73
2021/10/09 17:01:48;;;;;;;10.63;6.50;;;;;;;;;;4973737;28;20443;-72
2021/10/09 17:04:15;;;;;;;7.43;5.90;;;;;;;;;;4973813;28;20509;-73
2021/10/09 17:06:41;;;;;;;8.43;6.67;;;;;;;;;;4974126;28;20410;-72
2021/10/09 17:09:07;;;;;;;6.53;5.93;;;;;;;;;;4973782;28;20474;-72
2021/10/09 17:14:36;;;;;;;9.93;7.20;;;;;;;;;;4973761;28;20490;-72
2021/10/09 17:17:02;;;;;;;7.53;6.70;;;;;;;;;;4973876;28;20411;-72
2021/10/09 17:19:28;;;;;;;11.10;6.90;;;;;;;;;;4973935;28;20897;-71
2021/10/09 17:21:54;;;;;;;9.57;6.93;;;;;;;;;;4973910;28;20461;-72
2021/10/09 17:24:20;;;;;;;9.50;7.70;;;;;;;;;;4974141;28;20477;-71
2021/10/09 17:29:50;;;;;;;12.27;7.57;;;;;;;;;;4973668;28;20517;-73
2021/10/09 17:32:16;;;;;;;8.03;7.13;;;;;;;;;;4973724;28;20793;-72
2021/10/09 17:34:42;;;;;;;8.90;6.97;;;;;;;;;;4973729;28;20407;-73
2021/10/09 17:37:08;;;;;;;9.60;6.97;;;;;;;;;;4973477;28;20414;-72
2021/10/09 17:39:34;;;;;;;12.73;6.73;;;;;;;;;;4973247;28;20428;-71
2021/10/09 17:45:03;;;;;;;10.30;6.30;;;;;;;;;;4977327;28;20410;-71
2021/10/09 17:47:29;;;;;;;8.37;7.20;;;;;;;;;;4977270;28;20916;-72
2021/10/09 17:49:55;;;;;;;9.00;6.33;;;;;;;;;;4977438;28;20435;-72
2021/10/09 17:52:22;;;;;;;10.90;8.07;;;;;;;;;;4977078;28;20418;-73
2021/10/09 17:54:48;;;;;;;9.60;8.07;;;;;;;;;;4976882;28;20510;-73
2021/10/09 18:00:19;;;;;;;12.33;7.60;;;;;;;;;;4975969;28;20429;-73
2021/10/09 18:02:45;;;;;;;8.67;7.90;;;;;;;;;;4976825;28;20403;-74
2021/10/09 18:05:11;;;;;;;9.40;8.40;;;;;;;;;;4976732;28;20910;-72
2021/10/09 18:07:38;;;;;;;11.57;9.37;;;;;;;;;;4976801;28;20547;-73
2021/10/09 18:10:07;;;;;;;14.47;7.90;;;;;;;;;;4976678;28;20773;-74
2021/10/09 18:15:37;;;;;;;14.80;9.50;;;;;;;;;;4976578;28;20417;-73
2021/10/09 18:18:03;;;;;;;10.10;8.20;;;;;;;;;;4976690;28;20460;-72
2021/10/09 18:20:29;;;;;;;13.30;8.90;;;;;;;;;;4975289;28;20427;-73
2021/10/09 18:22:55;;;;;;;11.70;9.10;;;;;;;;;;4976574;28;20414;-73
2021/10/09 18:25:21;;;;;;;10.37;9.27;;;;;;;;;;4976623;28;20758;-73
2021/10/09 18:30:51;;;;;;;9.87;8.47;;;;;;;;;;4976136;28;20417;-74
2021/10/09 18:33:17;;;;;;;13.93;8.83;;;;;;;;;;4976353;28;20800;-72
2021/10/09 18:35:43;;;;;;;18.80;9.70;;;;;;;;;;4976175;28;20415;-73
2021/10/09 18:38:09;;;;;;;12.80;9.87;;;;;;;;;;4976275;28;20411;-71
2021/10/09 18:40:35;;;;;;;13.03;9.17;;;;;;;;;;4974749;28;20434;-73
2021/10/09 18:46:04;;;;;;;13.63;9.07;;;;;;;;;;4976043;28;20409;-71
2021/10/09 18:48:30;;;;;;;12.17;8.73;;;;;;;;;;4974798;28;20474;-72
2021/10/09 18:50:56;;;;;;;11.90;9.30;;;;;;;;;;4976266;28;20422;-71
2021/10/09 18:53:22;;;;;;;11.40;9.87;;;;;;;;;;4974870;28;20450;-73
2021/10/09 18:55:48;;;;;;;11.70;8.13;;;;;;;;;;4975731;28;20482;-72
2021/10/09 19:01:18;;;;;;;11.20;9.70;;;;;;;;;;4975855;28;20924;-75
2021/10/09 19:03:44;;;;;;;12.30;8.90;;;;;;;;;;4975892;28;20982;-72
2021/10/09 19:06:11;;;;;;;10.27;9.20;;;;;;;;;;4975739;28;20554;-73
2021/10/09 19:08:40;;;;;;;14.03;8.73;;;;;;;;;;4974349;28;20485;-72
2021/10/09 19:11:06;;;;;;;11.77;8.70;;;;;;;;;;4975638;28;20415;-72
2021/10/09 19:16:36;;;;;;;11.67;8.67;;;;;;;;;;4975594;28;20963;-73
2021/10/09 19:19:02;;;;;;;12.40;9.30;;;;;;;;;;4974493;28;20500;-72
2021/10/09 19:21:28;;;;;;;11.67;8.80;;;;;;;;;;4975479;28;20960;-72
2021/10/09 19:23:55;;;;;;;14.90;11.40;;;;;;;;;;4975687;28;20411;-71
2021/10/09 19:26:21;;;;;;;11.83;9.27;;;;;;;;;;4975764;28;20419;-71
2021/10/09 19:31:53;;;;;;;16.80;9.00;;;;;;;;;;4975604;28;20445;-72
2021/10/09 19:34:23;;;;;;;11.07;9.53;;;;;;;;;;4974423;28;20434;-73
2021/10/09 19:36:55;;;;;;;15.17;8.80;;;;;;;;;;4972770;28;20437;-74
2021/10/09 19:39:21;;;;;;;15.63;9.17;;;;;;;;;;4975512;28;20438;-72